sensor_id;sensor_type;location;lat;lon;timestamp;P1;durP1;ratioP1;P2;durP2;ratioP2
10711;SDS011;5407;51.234;6.804;2022-12-29T00:01:37;1.00;;;0.90;;
10711;SDS011;5407;51.234;6.804;2022-12-29T00:04:04;0.90;;;0.90;;
10711;SDS011;5407;51.234;6.804;2022-12-29T00:06:32;0.93;;;0.93;;
10711;SDS011;5407;51.234;6.804;2022-12-29T00:09:00;0.93;;;0.93;;
10711;SDS011;5407;51.234;6.804;2022-12-29T00:11:27;0.73;;;0.73;;
10711;SDS011;5407;51.234;6.804;2022-12-29T00:13:54;0.90;;;0.90;;
10711;SDS011;5407;51.234;6.804;2022-12-29T00:16:40;1.10;;;1.00;;
10711;SDS011;5407;51.234;6.804;2022-12-29T00:19:08;0.80;;;0.80;;
10711;SDS011;5407;51.234;6.804;2022-12-29T00:21:55;1.00;;;1.00;;
10711;SDS011;5407;51.234;6.804;2022-12-29T00:24:40;1.00;;;1.00;;
10711;SDS011;5407;51.234;6.804;2022-12-29T00:27:25;0.85;;;0.85;;
10711;SDS011;5407;51.234;6.804;2022-12-29T00:30:11;0.90;;;0.90;;
10711;SDS011;5407;51.234;6.804;2022-12-29T00:32:56;0.80;;;0.80;;
10711;SDS011;5407;51.234;6.804;2022-12-29T00:35:43;0.90;;;0.85;;
10711;SDS011;5407;51.234;6.804;2022-12-29T00:38:12;0.80;;;0.80;;
10711;SDS011;5407;51.234;6.804;2022-12-29T00:40:58;0.80;;;0.80;;
10711;SDS011;5407;51.234;6.804;2022-12-29T00:43:43;0.90;;;0.90;;
10711;SDS011;5407;51.234;6.804;2022-12-29T00:46:27;0.70;;;0.70;;
10711;SDS011;5407;51.234;6.804;2022-12-29T00:48:54;0.80;;;0.80;;
10711;SDS011;5407;51.234;6.804;2022-12-29T00:51:38;0.90;;;0.88;;
10711;SDS011;5407;51.234;6.804;2022-12-29T00:54:05;1.13;;;1.02;;
10711;SDS011;5407;51.234;6.804;2022-12-29T00:56:33;0.77;;;0.77;;
10711;SDS011;5407;51.234;6.804;2022-12-29T00:59:00;0.65;;;0.65;;
10711;SDS011;5407;51.234;6.804;2022-12-29T01:01:28;0.88;;;0.88;;
10711;SDS011;5407;51.234;6.804;2022-12-29T01:03:55;0.65;;;0.65;;
10711;SDS011;5407;51.234;6.804;2022-12-29T01:06:22;0.73;;;0.73;;
10711;SDS011;5407;51.234;6.804;2022-12-29T01:08:50;0.90;;;0.90;;
10711;SDS011;5407;51.234;6.804;2022-12-29T01:11:39;0.50;;;0.50;;
10711;SDS011;5407;51.234;6.804;2022-12-29T01:14:05;1.05;;;0.73;;
10711;SDS011;5407;51.234;6.804;2022-12-29T01:16:32;0.50;;;0.50;;
10711;SDS011;5407;51.234;6.804;2022-12-29T01:19:01;0.60;;;0.60;;
10711;SDS011;5407;51.234;6.804;2022-12-29T01:21:29;0.80;;;0.70;;
10711;SDS011;5407;51.234;6.804;2022-12-29T01:23:56;0.88;;;0.88;;
10711;SDS011;5407;51.234;6.804;2022-12-29T01:26:22;0.75;;;0.75;;
10711;SDS011;5407;51.234;6.804;2022-12-29T01:28:52;0.82;;;0.82;;
10711;SDS011;5407;51.234;6.804;2022-12-29T01:31:19;0.65;;;0.65;;
10711;SDS011;5407;51.234;6.804;2022-12-29T01:33:46;0.60;;;0.60;;
10711;SDS011;5407;51.234;6.804;2022-12-29T01:36:13;0.70;;;0.70;;
10711;SDS011;5407;51.234;6.804;2022-12-29T01:38:42;0.70;;;0.70;;
10711;SDS011;5407;51.234;6.804;2022-12-29T01:41:10;0.70;;;0.70;;
10711;SDS011;5407;51.234;6.804;2022-12-29T01:43:39;0.80;;;0.80;;
10711;SDS011;5407;51.234;6.804;2022-12-29T01:46:13;0.60;;;0.60;;
10711;SDS011;5407;51.234;6.804;2022-12-29T01:48:51;0.70;;;0.70;;
10711;SDS011;5407;51.234;6.804;2022-12-29T01:51:22;0.70;;;0.70;;
10711;SDS011;5407;51.234;6.804;2022-12-29T01:53:51;0.80;;;0.80;;
10711;SDS011;5407;51.234;6.804;2022-12-29T01:56:21;0.73;;;0.73;;
10711;SDS011;5407;51.234;6.804;2022-12-29T01:58:50;0.90;;;0.90;;
10711;SDS011;5407;51.234;6.804;2022-12-29T02:01:22;0.90;;;0.90;;
10711;SDS011;5407;51.234;6.804;2022-12-29T02:03:49;1.08;;;1.00;;
10711;SDS011;5407;51.234;6.804;2022-12-29T02:06:18;0.85;;;0.85;;
10711;SDS011;5407;51.234;6.804;2022-12-29T02:08:49;0.75;;;0.75;;
10711;SDS011;5407;51.234;6.804;2022-12-29T02:11:21;0.98;;;0.98;;
10711;SDS011;5407;51.234;6.804;2022-12-29T02:13:51;0.90;;;0.90;;
10711;SDS011;5407;51.234;6.804;2022-12-29T02:16:29;1.30;;;1.20;;
10711;SDS011;5407;51.234;6.804;2022-12-29T02:19:08;1.08;;;1.02;;
10711;SDS011;5407;51.234;6.804;2022-12-29T02:22:00;1.15;;;1.10;;
10711;SDS011;5407;51.234;6.804;2022-12-29T02:27:44;1.15;;;1.05;;
10711;SDS011;5407;51.234;6.804;2022-12-29T02:33:34;0.93;;;0.93;;
10711;SDS011;5407;51.234;6.804;2022-12-29T02:36:11;1.20;;;1.10;;
10711;SDS011;5407;51.234;6.804;2022-12-29T02:38:48;0.98;;;0.98;;
10711;SDS011;5407;51.234;6.804;2022-12-29T02:41:22;1.30;;;1.20;;
10711;SDS011;5407;51.234;6.804;2022-12-29T02:43:58;1.25;;;1.20;;
10711;SDS011;5407;51.234;6.804;2022-12-29T02:46:32;1.20;;;1.17;;
10711;SDS011;5407;51.234;6.804;2022-12-29T02:49:04;1.40;;;1.30;;
10711;SDS011;5407;51.234;6.804;2022-12-29T02:51:39;1.30;;;1.20;;
10711;SDS011;5407;51.234;6.804;2022-12-29T02:54:10;1.20;;;1.10;;
10711;SDS011;5407;51.234;6.804;2022-12-29T02:56:55;1.33;;;1.20;;
10711;SDS011;5407;51.234;6.804;2022-12-29T02:59:21;1.65;;;1.55;;
10711;SDS011;5407;51.234;6.804;2022-12-29T03:02:02;1.35;;;1.20;;
10711;SDS011;5407;51.234;6.804;2022-12-29T03:04:47;1.60;;;1.50;;
10711;SDS011;5407;51.234;6.804;2022-12-29T03:07:28;1.42;;;1.33;;
10711;SDS011;5407;51.234;6.804;2022-12-29T03:10:08;1.40;;;1.30;;
10711;SDS011;5407;51.234;6.804;2022-12-29T03:12:46;1.42;;;1.33;;
10711;SDS011;5407;51.234;6.804;2022-12-29T03:15:39;1.17;;;1.17;;
10711;SDS011;5407;51.234;6.804;2022-12-29T03:18:39;1.50;;;1.40;;
10711;SDS011;5407;51.234;6.804;2022-12-29T03:21:11;1.48;;;1.38;;
10711;SDS011;5407;51.234;6.804;2022-12-29T03:23:42;1.25;;;1.25;;
10711;SDS011;5407;51.234;6.804;2022-12-29T03:26:13;1.50;;;1.40;;
10711;SDS011;5407;51.234;6.804;2022-12-29T03:28:43;1.40;;;1.30;;
10711;SDS011;5407;51.234;6.804;2022-12-29T03:31:19;1.40;;;1.30;;
10711;SDS011;5407;51.234;6.804;2022-12-29T03:33:50;1.60;;;1.42;;
10711;SDS011;5407;51.234;6.804;2022-12-29T03:36:21;1.50;;;1.40;;
10711;SDS011;5407;51.234;6.804;2022-12-29T03:38:55;1.40;;;1.30;;
10711;SDS011;5407;51.234;6.804;2022-12-29T03:41:28;1.50;;;1.40;;
10711;SDS011;5407;51.234;6.804;2022-12-29T03:44:00;1.50;;;1.40;;
10711;SDS011;5407;51.234;6.804;2022-12-29T03:46:27;2.15;;;1.50;;
10711;SDS011;5407;51.234;6.804;2022-12-29T03:48:55;1.45;;;1.35;;
10711;SDS011;5407;51.234;6.804;2022-12-29T03:51:22;1.60;;;1.50;;
10711;SDS011;5407;51.234;6.804;2022-12-29T03:53:50;1.55;;;1.45;;
10711;SDS011;5407;51.234;6.804;2022-12-29T03:56:17;1.33;;;1.23;;
10711;SDS011;5407;51.234;6.804;2022-12-29T03:58:44;1.42;;;1.33;;
10711;SDS011;5407;51.234;6.804;2022-12-29T04:01:19;1.58;;;1.48;;
10711;SDS011;5407;51.234;6.804;2022-12-29T04:03:46;1.50;;;1.40;;
10711;SDS011;5407;51.234;6.804;2022-12-29T04:06:14;1.30;;;1.20;;
10711;SDS011;5407;51.234;6.804;2022-12-29T04:08:48;1.40;;;1.30;;
10711;SDS011;5407;51.234;6.804;2022-12-29T04:11:15;1.50;;;1.40;;
10711;SDS011;5407;51.234;6.804;2022-12-29T04:13:42;1.50;;;1.40;;
10711;SDS011;5407;51.234;6.804;2022-12-29T04:16:13;1.42;;;1.33;;
10711;SDS011;5407;51.234;6.804;2022-12-29T04:18:40;1.30;;;1.20;;
10711;SDS011;5407;51.234;6.804;2022-12-29T04:21:07;1.48;;;1.38;;
10711;SDS011;5407;51.234;6.804;2022-12-29T04:23:38;1.63;;;1.52;;
10711;SDS011;5407;51.234;6.804;2022-12-29T04:26:07;1.33;;;1.23;;
10711;SDS011;5407;51.234;6.804;2022-12-29T04:28:47;1.35;;;1.25;;
10711;SDS011;5407;51.234;6.804;2022-12-29T04:31:27;1.30;;;1.20;;
10711;SDS011;5407;51.234;6.804;2022-12-29T04:33:54;1.70;;;1.60;;
10711;SDS011;5407;51.234;6.804;2022-12-29T04:36:22;1.40;;;1.30;;
10711;SDS011;5407;51.234;6.804;2022-12-29T04:38:51;1.58;;;1.48;;
10711;SDS011;5407;51.234;6.804;2022-12-29T04:41:18;1.42;;;1.33;;
10711;SDS011;5407;51.234;6.804;2022-12-29T04:43:45;1.63;;;1.52;;
10711;SDS011;5407;51.234;6.804;2022-12-29T04:46:30;1.40;;;1.30;;
10711;SDS011;5407;51.234;6.804;2022-12-29T04:49:18;1.73;;;1.63;;
10711;SDS011;5407;51.234;6.804;2022-12-29T04:51:58;1.70;;;1.60;;
10711;SDS011;5407;51.234;6.804;2022-12-29T04:54:27;1.77;;;1.50;;
10711;SDS011;5407;51.234;6.804;2022-12-29T04:57:04;1.67;;;1.58;;
10711;SDS011;5407;51.234;6.804;2022-12-29T04:59:31;1.70;;;1.60;;
10711;SDS011;5407;51.234;6.804;2022-12-29T05:01:58;1.50;;;1.40;;
10711;SDS011;5407;51.234;6.804;2022-12-29T05:04:25;1.42;;;1.33;;
10711;SDS011;5407;51.234;6.804;2022-12-29T05:06:52;1.50;;;1.40;;
10711;SDS011;5407;51.234;6.804;2022-12-29T05:09:19;1.63;;;1.50;;
10711;SDS011;5407;51.234;6.804;2022-12-29T05:11:47;1.45;;;1.35;;
10711;SDS011;5407;51.234;6.804;2022-12-29T05:14:14;1.45;;;1.27;;
10711;SDS011;5407;51.234;6.804;2022-12-29T05:16:42;1.50;;;1.40;;
10711;SDS011;5407;51.234;6.804;2022-12-29T05:19:09;1.42;;;1.33;;
10711;SDS011;5407;51.234;6.804;2022-12-29T05:21:36;1.38;;;1.27;;
10711;SDS011;5407;51.234;6.804;2022-12-29T05:24:04;1.38;;;1.27;;
10711;SDS011;5407;51.234;6.804;2022-12-29T05:26:31;1.60;;;1.50;;
10711;SDS011;5407;51.234;6.804;2022-12-29T05:29:06;1.60;;;1.50;;
10711;SDS011;5407;51.234;6.804;2022-12-29T05:31:33;1.83;;;1.17;;
10711;SDS011;5407;51.234;6.804;2022-12-29T05:34:03;1.88;;;1.40;;
10711;SDS011;5407;51.234;6.804;2022-12-29T05:36:30;1.10;;;1.00;;
10711;SDS011;5407;51.234;6.804;2022-12-29T05:38:59;1.60;;;1.13;;
10711;SDS011;5407;51.234;6.804;2022-12-29T05:41:26;0.93;;;0.90;;
10711;SDS011;5407;51.234;6.804;2022-12-29T05:43:59;2.13;;;1.20;;
10711;SDS011;5407;51.234;6.804;2022-12-29T05:46:38;4.13;;;1.10;;
10711;SDS011;5407;51.234;6.804;2022-12-29T05:49:28;1.67;;;1.00;;
10711;SDS011;5407;51.234;6.804;2022-12-29T05:52:14;1.25;;;0.90;;
10711;SDS011;5407;51.234;6.804;2022-12-29T05:54:41;2.72;;;1.00;;
10711;SDS011;5407;51.234;6.804;2022-12-29T05:57:11;1.42;;;0.82;;
10711;SDS011;5407;51.234;6.804;2022-12-29T05:59:40;1.60;;;1.00;;
10711;SDS011;5407;51.234;6.804;2022-12-29T06:02:08;0.82;;;0.82;;
10711;SDS011;5407;51.234;6.804;2022-12-29T06:04:36;1.35;;;1.00;;
10711;SDS011;5407;51.234;6.804;2022-12-29T06:07:02;0.80;;;0.80;;
10711;SDS011;5407;51.234;6.804;2022-12-29T06:09:39;1.05;;;0.90;;
10711;SDS011;5407;51.234;6.804;2022-12-29T06:12:06;1.63;;;1.10;;
10711;SDS011;5407;51.234;6.804;2022-12-29T06:14:33;1.50;;;0.80;;
10711;SDS011;5407;51.234;6.804;2022-12-29T06:17:02;1.00;;;0.90;;
10711;SDS011;5407;51.234;6.804;2022-12-29T06:19:32;1.00;;;1.00;;
10711;SDS011;5407;51.234;6.804;2022-12-29T06:21:59;0.80;;;0.70;;
10711;SDS011;5407;51.234;6.804;2022-12-29T06:24:27;1.08;;;0.90;;
10711;SDS011;5407;51.234;6.804;2022-12-29T06:26:54;0.95;;;0.90;;
10711;SDS011;5407;51.234;6.804;2022-12-29T06:29:20;1.23;;;0.80;;
10711;SDS011;5407;51.234;6.804;2022-12-29T06:31:47;0.88;;;0.88;;
10711;SDS011;5407;51.234;6.804;2022-12-29T06:34:16;1.25;;;0.90;;
10711;SDS011;5407;51.234;6.804;2022-12-29T06:36:44;0.82;;;0.82;;
10711;SDS011;5407;51.234;6.804;2022-12-29T06:39:11;1.00;;;0.88;;
10711;SDS011;5407;51.234;6.804;2022-12-29T06:41:38;1.45;;;0.80;;
10711;SDS011;5407;51.234;6.804;2022-12-29T06:44:21;1.25;;;1.00;;
10711;SDS011;5407;51.234;6.804;2022-12-29T06:47:08;1.33;;;0.85;;
10711;SDS011;5407;51.234;6.804;2022-12-29T06:49:35;1.10;;;1.00;;
10711;SDS011;5407;51.234;6.804;2022-12-29T06:52:03;0.98;;;0.98;;
10711;SDS011;5407;51.234;6.804;2022-12-29T06:54:30;0.70;;;0.70;;
10711;SDS011;5407;51.234;6.804;2022-12-29T06:56:58;0.80;;;0.80;;
10711;SDS011;5407;51.234;6.804;2022-12-29T06:59:25;0.65;;;0.65;;
10711;SDS011;5407;51.234;6.804;2022-12-29T07:01:51;0.80;;;0.80;;
10711;SDS011;5407;51.234;6.804;2022-12-29T07:04:18;1.00;;;0.90;;
10711;SDS011;5407;51.234;6.804;2022-12-29T07:06:45;0.82;;;0.82;;
10711;SDS011;5407;51.234;6.804;2022-12-29T07:09:13;0.88;;;0.80;;
10711;SDS011;5407;51.234;6.804;2022-12-29T07:11:40;1.23;;;0.90;;
10711;SDS011;5407;51.234;6.804;2022-12-29T07:14:07;1.52;;;0.70;;
10711;SDS011;5407;51.234;6.804;2022-12-29T07:16:34;0.90;;;0.85;;
10711;SDS011;5407;51.234;6.804;2022-12-29T07:19:00;1.00;;;0.90;;
10711;SDS011;5407;51.234;6.804;2022-12-29T07:21:27;0.93;;;0.80;;
10711;SDS011;5407;51.234;6.804;2022-12-29T07:23:54;1.00;;;0.90;;
10711;SDS011;5407;51.234;6.804;2022-12-29T07:26:23;1.10;;;0.90;;
10711;SDS011;5407;51.234;6.804;2022-12-29T07:28:49;0.90;;;0.90;;
10711;SDS011;5407;51.234;6.804;2022-12-29T07:31:17;1.00;;;0.80;;
10711;SDS011;5407;51.234;6.804;2022-12-29T07:33:45;1.05;;;0.70;;
10711;SDS011;5407;51.234;6.804;2022-12-29T07:36:12;0.90;;;0.90;;
10711;SDS011;5407;51.234;6.804;2022-12-29T07:38:40;1.00;;;0.90;;
10711;SDS011;5407;51.234;6.804;2022-12-29T07:41:07;1.98;;;0.80;;
10711;SDS011;5407;51.234;6.804;2022-12-29T07:43:35;1.75;;;0.80;;
10711;SDS011;5407;51.234;6.804;2022-12-29T07:46:21;0.80;;;0.80;;
10711;SDS011;5407;51.234;6.804;2022-12-29T07:48:48;1.10;;;0.90;;
10711;SDS011;5407;51.234;6.804;2022-12-29T07:51:15;0.80;;;0.80;;
10711;SDS011;5407;51.234;6.804;2022-12-29T07:53:41;0.90;;;0.80;;
10711;SDS011;5407;51.234;6.804;2022-12-29T07:56:08;1.08;;;0.82;;
10711;SDS011;5407;51.234;6.804;2022-12-29T07:58:37;1.55;;;0.90;;
10711;SDS011;5407;51.234;6.804;2022-12-29T08:01:03;0.95;;;0.85;;
10711;SDS011;5407;51.234;6.804;2022-12-29T08:03:31;1.08;;;0.80;;
10711;SDS011;5407;51.234;6.804;2022-12-29T08:05:58;1.45;;;1.05;;
10711;SDS011;5407;51.234;6.804;2022-12-29T08:08:24;0.68;;;0.65;;
10711;SDS011;5407;51.234;6.804;2022-12-29T08:10:51;0.80;;;0.80;;
10711;SDS011;5407;51.234;6.804;2022-12-29T08:13:18;0.80;;;0.80;;
10711;SDS011;5407;51.234;6.804;2022-12-29T08:15:46;0.60;;;0.60;;
10711;SDS011;5407;51.234;6.804;2022-12-29T08:18:13;1.13;;;0.77;;
10711;SDS011;5407;51.234;6.804;2022-12-29T08:20:40;0.80;;;0.70;;
10711;SDS011;5407;51.234;6.804;2022-12-29T08:23:07;1.27;;;0.80;;
10711;SDS011;5407;51.234;6.804;2022-12-29T08:25:33;0.95;;;0.82;;
10711;SDS011;5407;51.234;6.804;2022-12-29T08:28:00;0.85;;;0.65;;
10711;SDS011;5407;51.234;6.804;2022-12-29T08:30:27;0.88;;;0.77;;
10711;SDS011;5407;51.234;6.804;2022-12-29T08:32:55;0.75;;;0.70;;
10711;SDS011;5407;51.234;6.804;2022-12-29T08:35:22;0.98;;;0.88;;
10711;SDS011;5407;51.234;6.804;2022-12-29T08:37:49;1.35;;;0.80;;
10711;SDS011;5407;51.234;6.804;2022-12-29T08:40:16;1.73;;;0.75;;
10711;SDS011;5407;51.234;6.804;2022-12-29T08:42:43;1.00;;;0.63;;
10711;SDS011;5407;51.234;6.804;2022-12-29T08:45:10;1.25;;;1.00;;
10711;SDS011;5407;51.234;6.804;2022-12-29T08:47:37;0.95;;;0.70;;
10711;SDS011;5407;51.234;6.804;2022-12-29T08:50:06;1.05;;;0.82;;
10711;SDS011;5407;51.234;6.804;2022-12-29T08:52:33;0.98;;;0.90;;
10711;SDS011;5407;51.234;6.804;2022-12-29T08:55:00;1.33;;;1.00;;
10711;SDS011;5407;51.234;6.804;2022-12-29T08:57:28;1.80;;;0.88;;
10711;SDS011;5407;51.234;6.804;2022-12-29T09:00:12;1.90;;;0.90;;
10711;SDS011;5407;51.234;6.804;2022-12-29T09:02:40;1.05;;;0.80;;
10711;SDS011;5407;51.234;6.804;2022-12-29T09:05:08;2.78;;;0.82;;
10711;SDS011;5407;51.234;6.804;2022-12-29T09:07:36;1.83;;;0.90;;
10711;SDS011;5407;51.234;6.804;2022-12-29T09:10:03;1.80;;;0.95;;
10711;SDS011;5407;51.234;6.804;2022-12-29T09:12:30;1.35;;;0.80;;
10711;SDS011;5407;51.234;6.804;2022-12-29T09:14:57;1.98;;;1.20;;
10711;SDS011;5407;51.234;6.804;2022-12-29T09:17:24;2.28;;;1.30;;
10711;SDS011;5407;51.234;6.804;2022-12-29T09:20:10;3.40;;;1.35;;
10711;SDS011;5407;51.234;6.804;2022-12-29T09:22:38;2.53;;;1.30;;
10711;SDS011;5407;51.234;6.804;2022-12-29T09:25:05;3.38;;;1.30;;
10711;SDS011;5407;51.234;6.804;2022-12-29T09:27:34;3.95;;;1.33;;
10711;SDS011;5407;51.234;6.804;2022-12-29T09:30:01;2.05;;;1.05;;
10711;SDS011;5407;51.234;6.804;2022-12-29T09:32:28;1.80;;;1.10;;
10711;SDS011;5407;51.234;6.804;2022-12-29T09:34:54;1.45;;;1.08;;
10711;SDS011;5407;51.234;6.804;2022-12-29T09:37:23;1.88;;;1.23;;
10711;SDS011;5407;51.234;6.804;2022-12-29T09:39:49;3.08;;;1.50;;
10711;SDS011;5407;51.234;6.804;2022-12-29T09:42:18;6.63;;;2.20;;
10711;SDS011;5407;51.234;6.804;2022-12-29T09:45:01;5.50;;;2.22;;
10711;SDS011;5407;51.234;6.804;2022-12-29T09:47:34;5.47;;;2.00;;
10711;SDS011;5407;51.234;6.804;2022-12-29T09:50:03;6.85;;;2.13;;
10711;SDS011;5407;51.234;6.804;2022-12-29T09:52:39;3.55;;;1.73;;
10711;SDS011;5407;51.234;6.804;2022-12-29T09:55:14;4.82;;;1.80;;
10711;SDS011;5407;51.234;6.804;2022-12-29T09:57:45;6.32;;;2.00;;
10711;SDS011;5407;51.234;6.804;2022-12-29T10:00:15;3.35;;;1.60;;
10711;SDS011;5407;51.234;6.804;2022-12-29T10:02:44;3.70;;;1.60;;
10711;SDS011;5407;51.234;6.804;2022-12-29T10:05:20;5.03;;;1.65;;
10711;SDS011;5407;51.234;6.804;2022-12-29T10:08:03;3.30;;;1.40;;
10711;SDS011;5407;51.234;6.804;2022-12-29T10:10:38;2.53;;;1.40;;
10711;SDS011;5407;51.234;6.804;2022-12-29T10:13:14;3.28;;;1.52;;
10711;SDS011;5407;51.234;6.804;2022-12-29T10:15:56;3.28;;;1.70;;
10711;SDS011;5407;51.234;6.804;2022-12-29T10:18:32;3.15;;;1.67;;
10711;SDS011;5407;51.234;6.804;2022-12-29T10:21:23;3.65;;;1.80;;
10711;SDS011;5407;51.234;6.804;2022-12-29T10:23:58;4.22;;;1.80;;
10711;SDS011;5407;51.234;6.804;2022-12-29T10:26:38;4.10;;;1.50;;
10711;SDS011;5407;51.234;6.804;2022-12-29T10:29:10;5.38;;;1.90;;
10711;SDS011;5407;51.234;6.804;2022-12-29T10:31:43;2.63;;;1.45;;
10711;SDS011;5407;51.234;6.804;2022-12-29T10:34:15;3.10;;;1.50;;
10711;SDS011;5407;51.234;6.804;2022-12-29T10:36:48;3.72;;;1.40;;
10711;SDS011;5407;51.234;6.804;2022-12-29T10:39:21;5.45;;;1.65;;
10711;SDS011;5407;51.234;6.804;2022-12-29T10:41:56;3.40;;;1.50;;
10711;SDS011;5407;51.234;6.804;2022-12-29T10:44:31;2.53;;;1.40;;
10711;SDS011;5407;51.234;6.804;2022-12-29T10:47:02;3.30;;;1.38;;
10711;SDS011;5407;51.234;6.804;2022-12-29T10:49:32;3.28;;;1.48;;
10711;SDS011;5407;51.234;6.804;2022-12-29T10:52:04;4.20;;;1.58;;
10711;SDS011;5407;51.234;6.804;2022-12-29T10:54:36;2.50;;;1.48;;
10711;SDS011;5407;51.234;6.804;2022-12-29T10:57:09;5.15;;;1.73;;
10711;SDS011;5407;51.234;6.804;2022-12-29T10:59:43;9.15;;;1.73;;
10711;SDS011;5407;51.234;6.804;2022-12-29T11:02:15;3.78;;;1.60;;
10711;SDS011;5407;51.234;6.804;2022-12-29T11:04:54;3.22;;;1.60;;
10711;SDS011;5407;51.234;6.804;2022-12-29T11:07:28;2.63;;;1.48;;
10711;SDS011;5407;51.234;6.804;2022-12-29T11:09:57;2.55;;;1.30;;
10711;SDS011;5407;51.234;6.804;2022-12-29T11:12:54;2.67;;;1.55;;
10711;SDS011;5407;51.234;6.804;2022-12-29T11:15:22;3.78;;;1.48;;
10711;SDS011;5407;51.234;6.804;2022-12-29T11:17:51;2.78;;;1.38;;
10711;SDS011;5407;51.234;6.804;2022-12-29T11:20:23;3.63;;;1.30;;
10711;SDS011;5407;51.234;6.804;2022-12-29T11:22:54;2.92;;;1.30;;
10711;SDS011;5407;51.234;6.804;2022-12-29T11:25:23;3.20;;;1.52;;
10711;SDS011;5407;51.234;6.804;2022-12-29T11:27:56;4.05;;;1.85;;
10711;SDS011;5407;51.234;6.804;2022-12-29T11:30:27;2.60;;;1.60;;
10711;SDS011;5407;51.234;6.804;2022-12-29T11:32:55;2.63;;;1.65;;
10711;SDS011;5407;51.234;6.804;2022-12-29T11:35:30;3.42;;;1.85;;
10711;SDS011;5407;51.234;6.804;2022-12-29T11:37:59;3.90;;;1.75;;
10711;SDS011;5407;51.234;6.804;2022-12-29T11:40:29;4.70;;;1.77;;
10711;SDS011;5407;51.234;6.804;2022-12-29T11:42:57;2.85;;;1.70;;
10711;SDS011;5407;51.234;6.804;2022-12-29T11:45:28;1.98;;;1.33;;
10711;SDS011;5407;51.234;6.804;2022-12-29T11:48:00;3.38;;;1.83;;
10711;SDS011;5407;51.234;6.804;2022-12-29T11:50:32;3.38;;;1.75;;
10711;SDS011;5407;51.234;6.804;2022-12-29T11:53:03;3.75;;;1.70;;
10711;SDS011;5407;51.234;6.804;2022-12-29T11:55:37;4.15;;;1.70;;
10711;SDS011;5407;51.234;6.804;2022-12-29T11:58:04;3.30;;;1.80;;
10711;SDS011;5407;51.234;6.804;2022-12-29T12:00:34;3.13;;;1.95;;
10711;SDS011;5407;51.234;6.804;2022-12-29T12:03:06;3.20;;;2.00;;
10711;SDS011;5407;51.234;6.804;2022-12-29T12:05:41;2.88;;;1.95;;
10711;SDS011;5407;51.234;6.804;2022-12-29T12:08:12;5.13;;;2.08;;
10711;SDS011;5407;51.234;6.804;2022-12-29T12:10:46;3.38;;;2.15;;
10711;SDS011;5407;51.234;6.804;2022-12-29T12:13:18;4.10;;;2.30;;
10711;SDS011;5407;51.234;6.804;2022-12-29T12:15:52;2.65;;;1.83;;
10711;SDS011;5407;51.234;6.804;2022-12-29T12:18:33;2.83;;;1.98;;
10711;SDS011;5407;51.234;6.804;2022-12-29T12:21:13;2.80;;;1.90;;
10711;SDS011;5407;51.234;6.804;2022-12-29T12:23:52;4.15;;;2.13;;
10711;SDS011;5407;51.234;6.804;2022-12-29T12:26:46;2.13;;;1.80;;
10711;SDS011;5407;51.234;6.804;2022-12-29T12:29:23;3.50;;;2.03;;
10711;SDS011;5407;51.234;6.804;2022-12-29T12:31:55;3.15;;;2.10;;
10711;SDS011;5407;51.234;6.804;2022-12-29T12:34:29;2.33;;;1.85;;
10711;SDS011;5407;51.234;6.804;2022-12-29T12:37:17;2.65;;;1.77;;
10711;SDS011;5407;51.234;6.804;2022-12-29T12:40:01;2.42;;;1.58;;
10711;SDS011;5407;51.234;6.804;2022-12-29T12:42:49;2.97;;;1.73;;
10711;SDS011;5407;51.234;6.804;2022-12-29T12:45:38;3.13;;;1.63;;
10711;SDS011;5407;51.234;6.804;2022-12-29T12:48:20;2.22;;;1.70;;
10711;SDS011;5407;51.234;6.804;2022-12-29T12:50:58;2.58;;;1.90;;
10711;SDS011;5407;51.234;6.804;2022-12-29T12:53:40;2.58;;;1.73;;
10711;SDS011;5407;51.234;6.804;2022-12-29T12:56:35;3.08;;;1.80;;
10711;SDS011;5407;51.234;6.804;2022-12-29T12:59:13;4.72;;;2.30;;
10711;SDS011;5407;51.234;6.804;2022-12-29T13:01:55;3.15;;;1.92;;
10711;SDS011;5407;51.234;6.804;2022-12-29T13:04:46;3.17;;;1.83;;
10711;SDS011;5407;51.234;6.804;2022-12-29T13:07:28;3.28;;;1.73;;
10711;SDS011;5407;51.234;6.804;2022-12-29T13:10:16;4.57;;;1.90;;
10711;SDS011;5407;51.234;6.804;2022-12-29T13:12:53;3.17;;;1.75;;
10711;SDS011;5407;51.234;6.804;2022-12-29T13:15:37;2.00;;;1.70;;
10711;SDS011;5407;51.234;6.804;2022-12-29T13:18:16;2.35;;;1.70;;
10711;SDS011;5407;51.234;6.804;2022-12-29T13:20:52;2.88;;;1.80;;
10711;SDS011;5407;51.234;6.804;2022-12-29T13:23:23;1.95;;;1.70;;
10711;SDS011;5407;51.234;6.804;2022-12-29T13:25:58;3.00;;;2.10;;
10711;SDS011;5407;51.234;6.804;2022-12-29T13:28:32;2.72;;;2.10;;
10711;SDS011;5407;51.234;6.804;2022-12-29T13:31:13;3.78;;;2.22;;
10711;SDS011;5407;51.234;6.804;2022-12-29T13:33:48;3.13;;;2.20;;
10711;SDS011;5407;51.234;6.804;2022-12-29T13:36:25;3.22;;;2.17;;
10711;SDS011;5407;51.234;6.804;2022-12-29T13:38:59;2.70;;;1.90;;
10711;SDS011;5407;51.234;6.804;2022-12-29T13:41:33;3.17;;;2.35;;
10711;SDS011;5407;51.234;6.804;2022-12-29T13:44:03;2.95;;;2.05;;
10711;SDS011;5407;51.234;6.804;2022-12-29T13:46:35;3.00;;;2.20;;
10711;SDS011;5407;51.234;6.804;2022-12-29T13:49:07;4.65;;;2.28;;
10711;SDS011;5407;51.234;6.804;2022-12-29T13:51:40;3.45;;;2.03;;
10711;SDS011;5407;51.234;6.804;2022-12-29T13:54:16;3.53;;;2.15;;
10711;SDS011;5407;51.234;6.804;2022-12-29T13:56:52;3.20;;;2.08;;
10711;SDS011;5407;51.234;6.804;2022-12-29T13:59:32;2.90;;;1.88;;
10711;SDS011;5407;51.234;6.804;2022-12-29T14:02:10;2.50;;;1.92;;
10711;SDS011;5407;51.234;6.804;2022-12-29T14:04:55;3.25;;;2.17;;
10711;SDS011;5407;51.234;6.804;2022-12-29T14:07:24;3.22;;;2.15;;
10711;SDS011;5407;51.234;6.804;2022-12-29T14:09:51;2.78;;;2.30;;
10711;SDS011;5407;51.234;6.804;2022-12-29T14:12:32;2.45;;;2.00;;
10711;SDS011;5407;51.234;6.804;2022-12-29T14:15:05;3.88;;;2.50;;
10711;SDS011;5407;51.234;6.804;2022-12-29T14:17:45;2.95;;;2.17;;
10711;SDS011;5407;51.234;6.804;2022-12-29T14:20:30;3.70;;;1.90;;
10711;SDS011;5407;51.234;6.804;2022-12-29T14:22:58;2.80;;;1.88;;
10711;SDS011;5407;51.234;6.804;2022-12-29T14:28:36;3.40;;;1.95;;
10711;SDS011;5407;51.234;6.804;2022-12-29T14:31:04;2.80;;;1.70;;
10711;SDS011;5407;51.234;6.804;2022-12-29T14:33:33;4.50;;;2.00;;
10711;SDS011;5407;51.234;6.804;2022-12-29T14:38:59;3.47;;;1.90;;
10711;SDS011;5407;51.234;6.804;2022-12-29T14:41:28;7.05;;;1.70;;
10711;SDS011;5407;51.234;6.804;2022-12-29T14:44:02;2.90;;;1.80;;
10711;SDS011;5407;51.234;6.804;2022-12-29T14:46:44;2.35;;;1.70;;
10711;SDS011;5407;51.234;6.804;2022-12-29T14:49:18;2.42;;;1.55;;
10711;SDS011;5407;51.234;6.804;2022-12-29T14:51:48;3.17;;;1.73;;
10711;SDS011;5407;51.234;6.804;2022-12-29T15:00:18;2.50;;;1.60;;
10711;SDS011;5407;51.234;6.804;2022-12-29T15:02:47;2.03;;;1.70;;
10711;SDS011;5407;51.234;6.804;2022-12-29T15:05:24;1.70;;;1.50;;
10711;SDS011;5407;51.234;6.804;2022-12-29T15:07:56;2.60;;;1.83;;
10711;SDS011;5407;51.234;6.804;2022-12-29T15:10:24;2.50;;;1.52;;
10711;SDS011;5407;51.234;6.804;2022-12-29T15:12:53;2.25;;;1.60;;
10711;SDS011;5407;51.234;6.804;2022-12-29T15:15:22;2.45;;;1.50;;
10711;SDS011;5407;51.234;6.804;2022-12-29T15:17:50;2.92;;;1.55;;
10711;SDS011;5407;51.234;6.804;2022-12-29T15:20:22;1.70;;;1.40;;
10711;SDS011;5407;51.234;6.804;2022-12-29T15:22:54;2.15;;;1.40;;
10711;SDS011;5407;51.234;6.804;2022-12-29T15:25:23;2.33;;;1.48;;
10711;SDS011;5407;51.234;6.804;2022-12-29T15:27:52;2.20;;;1.50;;
10711;SDS011;5407;51.234;6.804;2022-12-29T15:30:21;1.40;;;1.20;;
10711;SDS011;5407;51.234;6.804;2022-12-29T15:32:48;2.50;;;1.63;;
10711;SDS011;5407;51.234;6.804;2022-12-29T15:35:24;1.90;;;1.50;;
10711;SDS011;5407;51.234;6.804;2022-12-29T15:37:54;2.42;;;1.40;;
10711;SDS011;5407;51.234;6.804;2022-12-29T15:40:23;2.20;;;1.50;;
10711;SDS011;5407;51.234;6.804;2022-12-29T15:45:43;3.03;;;1.50;;
10711;SDS011;5407;51.234;6.804;2022-12-29T15:48:13;1.80;;;1.42;;
10711;SDS011;5407;51.234;6.804;2022-12-29T15:50:45;2.20;;;1.60;;
10711;SDS011;5407;51.234;6.804;2022-12-29T15:53:15;2.78;;;1.67;;